sensor_id;sensor_type;location;lat;lon;timestamp;temperature;humidity
13354;DHT22;6746;50.892;4.064;2022-12-17T00:00:24;-4.80;99.90
13354;DHT22;6746;50.892;4.064;2022-12-17T00:03:30;-4.80;99.90
13354;DHT22;6746;50.892;4.064;2022-12-17T00:06:36;-4.80;99.90
13354;DHT22;6746;50.892;4.064;2022-12-17T00:09:42;-4.80;99.90
13354;DHT22;6746;50.892;4.064;2022-12-17T00:12:48;-4.80;99.90
13354;DHT22;6746;50.892;4.064;2022-12-17T00:15:55;-4.80;99.90
13354;DHT22;6746;50.892;4.064;2022-12-17T00:18:54;-4.80;99.90
13354;DHT22;6746;50.892;4.064;2022-12-17T00:21:50;-4.90;99.90
13354;DHT22;6746;50.892;4.064;2022-12-17T00:24:54;-4.90;99.90
13354;DHT22;6746;50.892;4.064;2022-12-17T00:27:50;-4.90;99.90
13354;DHT22;6746;50.892;4.064;2022-12-17T00:30:50;-4.90;99.90
13354;DHT22;6746;50.892;4.064;2022-12-17T00:33:46;-5.00;99.90
13354;DHT22;6746;50.892;4.064;2022-12-17T00:36:51;-5.00;99.90
13354;DHT22;6746;50.892;4.064;2022-12-17T00:39:57;-5.10;99.90
13354;DHT22;6746;50.892;4.064;2022-12-17T00:43:10;-5.20;99.90
13354;DHT22;6746;50.892;4.064;2022-12-17T00:46:15;-5.20;99.90
13354;DHT22;6746;50.892;4.064;2022-12-17T00:49:21;-5.20;99.90
13354;DHT22;6746;50.892;4.064;2022-12-17T00:52:27;-5.20;99.90
13354;DHT22;6746;50.892;4.064;2022-12-17T00:55:33;-5.20;99.90
13354;DHT22;6746;50.892;4.064;2022-12-17T00:58:39;-5.20;99.90
13354;DHT22;6746;50.892;4.064;2022-12-17T01:01:45;-5.10;99.90
13354;DHT22;6746;50.892;4.064;2022-12-17T01:04:51;-5.10;99.90
13354;DHT22;6746;50.892;4.064;2022-12-17T01:08:05;-5.10;99.90
13354;DHT22;6746;50.892;4.064;2022-12-17T01:11:06;-5.20;99.90
13354;DHT22;6746;50.892;4.064;2022-12-17T01:14:10;-5.30;99.90
13354;DHT22;6746;50.892;4.064;2022-12-17T01:17:06;-5.40;99.90
13354;DHT22;6746;50.892;4.064;2022-12-17T01:20:12;-5.30;99.90
13354;DHT22;6746;50.892;4.064;2022-12-17T01:23:14;-5.30;99.90
13354;DHT22;6746;50.892;4.064;2022-12-17T01:26:10;-5.20;99.90
13354;DHT22;6746;50.892;4.064;2022-12-17T01:29:06;-5.20;99.90
13354;DHT22;6746;50.892;4.064;2022-12-17T01:32:03;-5.20;99.90
13354;DHT22;6746;50.892;4.064;2022-12-17T01:35:06;-5.30;99.90
13354;DHT22;6746;50.892;4.064;2022-12-17T01:38:08;-5.40;99.90
13354;DHT22;6746;50.892;4.064;2022-12-17T01:40:59;-5.50;99.90
13354;DHT22;6746;50.892;4.064;2022-12-17T01:43:55;-5.50;99.90
13354;DHT22;6746;50.892;4.064;2022-12-17T01:47:01;-5.60;99.90
13354;DHT22;6746;50.892;4.064;2022-12-17T01:49:57;-5.60;99.90
13354;DHT22;6746;50.892;4.064;2022-12-17T01:52:54;-5.70;99.90
13354;DHT22;6746;50.892;4.064;2022-12-17T01:56:00;-5.70;99.90
13354;DHT22;6746;50.892;4.064;2022-12-17T01:59:06;-5.70;99.90
13354;DHT22;6746;50.892;4.064;2022-12-17T02:02:08;-5.60;99.90
13354;DHT22;6746;50.892;4.064;2022-12-17T02:05:05;-5.60;99.90
13354;DHT22;6746;50.892;4.064;2022-12-17T02:08:22;-5.60;99.90
13354;DHT22;6746;50.892;4.064;2022-12-17T02:11:25;-5.60;99.90
13354;DHT22;6746;50.892;4.064;2022-12-17T02:17:39;-5.60;99.90
13354;DHT22;6746;50.892;4.064;2022-12-17T02:20:42;-5.60;99.90
13354;DHT22;6746;50.892;4.064;2022-12-17T02:24:02;-5.60;99.90
13354;DHT22;6746;50.892;4.064;2022-12-17T02:27:01;-5.70;99.90
13354;DHT22;6746;50.892;4.064;2022-12-17T02:29:58;-5.70;99.90
13354;DHT22;6746;50.892;4.064;2022-12-17T02:33:02;-5.70;99.90
13354;DHT22;6746;50.892;4.064;2022-12-17T02:36:04;-5.70;99.90
13354;DHT22;6746;50.892;4.064;2022-12-17T02:39:00;-5.70;99.90
13354;DHT22;6746;50.892;4.064;2022-12-17T02:41:59;-5.70;99.90
13354;DHT22;6746;50.892;4.064;2022-12-17T02:44:56;-5.70;99.90
13354;DHT22;6746;50.892;4.064;2022-12-17T02:48:02;-5.70;99.90
13354;DHT22;6746;50.892;4.064;2022-12-17T02:50:58;-5.70;99.90
13354;DHT22;6746;50.892;4.064;2022-12-17T02:53:54;-5.80;99.90
13354;DHT22;6746;50.892;4.064;2022-12-17T02:56:58;-5.90;99.90
13354;DHT22;6746;50.892;4.064;2022-12-17T02:59:55;-6.00;99.90
13354;DHT22;6746;50.892;4.064;2022-12-17T03:02:58;-6.00;99.90
13354;DHT22;6746;50.892;4.064;2022-12-17T03:05:55;-6.00;99.90
13354;DHT22;6746;50.892;4.064;2022-12-17T03:09:01;-6.00;99.90
13354;DHT22;6746;50.892;4.064;2022-12-17T03:12:00;-6.10;99.90
13354;DHT22;6746;50.892;4.064;2022-12-17T03:14:56;-6.10;99.90
13354;DHT22;6746;50.892;4.064;2022-12-17T03:18:02;-6.00;99.90
13354;DHT22;6746;50.892;4.064;2022-12-17T03:21:01;-6.00;99.90
13354;DHT22;6746;50.892;4.064;2022-12-17T03:23:57;-6.00;99.90
13354;DHT22;6746;50.892;4.064;2022-12-17T03:27:04;-6.00;99.90
13354;DHT22;6746;50.892;4.064;2022-12-17T03:30:10;-6.00;99.90
13354;DHT22;6746;50.892;4.064;2022-12-17T03:33:09;-6.00;99.90
13354;DHT22;6746;50.892;4.064;2022-12-17T03:35:59;-6.00;99.90
13354;DHT22;6746;50.892;4.064;2022-12-17T03:38:56;-6.10;99.90
13354;DHT22;6746;50.892;4.064;2022-12-17T03:41:52;-6.20;99.90
13354;DHT22;6746;50.892;4.064;2022-12-17T03:44:58;-6.30;99.90
13354;DHT22;6746;50.892;4.064;2022-12-17T03:51:10;-6.30;99.90
13354;DHT22;6746;50.892;4.064;2022-12-17T03:54:16;-6.30;99.90
13354;DHT22;6746;50.892;4.064;2022-12-17T03:57:22;-6.30;99.90
13354;DHT22;6746;50.892;4.064;2022-12-17T04:00:28;-6.30;99.90
13354;DHT22;6746;50.892;4.064;2022-12-17T04:03:34;-6.30;99.90
13354;DHT22;6746;50.892;4.064;2022-12-17T04:06:40;-6.30;99.90
13354;DHT22;6746;50.892;4.064;2022-12-17T04:09:47;-6.30;99.90
13354;DHT22;6746;50.892;4.064;2022-12-17T04:12:47;-6.20;99.90
13354;DHT22;6746;50.892;4.064;2022-12-17T04:15:43;-6.20;99.90
13354;DHT22;6746;50.892;4.064;2022-12-17T04:18:39;-6.20;99.90
13354;DHT22;6746;50.892;4.064;2022-12-17T04:21:35;-6.30;99.90
13354;DHT22;6746;50.892;4.064;2022-12-17T04:24:41;-6.40;99.90
13354;DHT22;6746;50.892;4.064;2022-12-17T04:27:43;-6.50;99.90
13354;DHT22;6746;50.892;4.064;2022-12-17T04:30:39;-6.50;99.90
13354;DHT22;6746;50.892;4.064;2022-12-17T04:33:45;-6.50;99.90
13354;DHT22;6746;50.892;4.064;2022-12-17T04:36:51;-6.40;99.90
13354;DHT22;6746;50.892;4.064;2022-12-17T04:39:57;-6.40;99.90
13354;DHT22;6746;50.892;4.064;2022-12-17T04:43:07;-6.30;99.90
13354;DHT22;6746;50.892;4.064;2022-12-17T04:46:03;-6.30;99.90
13354;DHT22;6746;50.892;4.064;2022-12-17T04:48:59;-6.30;99.90
13354;DHT22;6746;50.892;4.064;2022-12-17T04:51:56;-6.30;99.90
13354;DHT22;6746;50.892;4.064;2022-12-17T04:55:02;-6.30;99.90
13354;DHT22;6746;50.892;4.064;2022-12-17T04:58:06;-6.30;99.90
13354;DHT22;6746;50.892;4.064;2022-12-17T05:01:02;-6.30;99.90
13354;DHT22;6746;50.892;4.064;2022-12-17T05:04:08;-6.30;99.90
13354;DHT22;6746;50.892;4.064;2022-12-17T05:07:14;-6.40;99.90
13354;DHT22;6746;50.892;4.064;2022-12-17T05:10:20;-6.50;99.90
13354;DHT22;6746;50.892;4.064;2022-12-17T05:13:27;-6.60;99.90
13354;DHT22;6746;50.892;4.064;2022-12-17T05:16:33;-6.50;99.90
13354;DHT22;6746;50.892;4.064;2022-12-17T05:19:29;-6.40;99.90
13354;DHT22;6746;50.892;4.064;2022-12-17T05:22:25;-6.40;99.90
13354;DHT22;6746;50.892;4.064;2022-12-17T05:25:21;-6.50;99.90
13354;DHT22;6746;50.892;4.064;2022-12-17T05:28:17;-6.40;99.90
13354;DHT22;6746;50.892;4.064;2022-12-17T05:31:13;-6.40;99.90
13354;DHT22;6746;50.892;4.064;2022-12-17T05:34:09;-6.40;99.90
13354;DHT22;6746;50.892;4.064;2022-12-17T05:37:06;-6.40;99.90
13354;DHT22;6746;50.892;4.064;2022-12-17T05:40:03;-6.40;99.90
13354;DHT22;6746;50.892;4.064;2022-12-17T05:42:59;-6.50;99.90
13354;DHT22;6746;50.892;4.064;2022-12-17T05:45:54;-6.50;99.90
13354;DHT22;6746;50.892;4.064;2022-12-17T05:48:51;-6.50;99.90
13354;DHT22;6746;50.892;4.064;2022-12-17T05:51:47;-6.50;99.90
13354;DHT22;6746;50.892;4.064;2022-12-17T05:54:46;-6.50;99.90
13354;DHT22;6746;50.892;4.064;2022-12-17T05:57:42;-6.50;99.90
13354;DHT22;6746;50.892;4.064;2022-12-17T06:00:48;-6.50;99.90
13354;DHT22;6746;50.892;4.064;2022-12-17T06:03:54;-6.50;99.90
13354;DHT22;6746;50.892;4.064;2022-12-17T06:06:50;-6.50;99.90
13354;DHT22;6746;50.892;4.064;2022-12-17T06:09:46;-6.50;99.90
13354;DHT22;6746;50.892;4.064;2022-12-17T06:12:56;-6.50;99.90
13354;DHT22;6746;50.892;4.064;2022-12-17T06:15:52;-6.50;99.90
13354;DHT22;6746;50.892;4.064;2022-12-17T06:18:57;-6.50;99.90
13354;DHT22;6746;50.892;4.064;2022-12-17T06:21:57;-6.50;99.90
13354;DHT22;6746;50.892;4.064;2022-12-17T06:24:54;-6.50;99.90
13354;DHT22;6746;50.892;4.064;2022-12-17T06:27:58;-6.50;99.90
13354;DHT22;6746;50.892;4.064;2022-12-17T06:30:54;-6.50;99.90
13354;DHT22;6746;50.892;4.064;2022-12-17T06:34:00;-6.50;99.90
13354;DHT22;6746;50.892;4.064;2022-12-17T06:37:06;-6.50;99.90
13354;DHT22;6746;50.892;4.064;2022-12-17T06:40:13;-6.50;99.90
13354;DHT22;6746;50.892;4.064;2022-12-17T06:43:19;-6.60;99.90
13354;DHT22;6746;50.892;4.064;2022-12-17T06:46:18;-6.70;99.90
13354;DHT22;6746;50.892;4.064;2022-12-17T06:49:14;-6.80;99.90
13354;DHT22;6746;50.892;4.064;2022-12-17T06:52:20;-6.80;99.90
13354;DHT22;6746;50.892;4.064;2022-12-17T06:55:26;-6.80;99.90
13354;DHT22;6746;50.892;4.064;2022-12-17T06:58:32;-6.70;99.90
13354;DHT22;6746;50.892;4.064;2022-12-17T07:01:38;-6.70;99.90
13354;DHT22;6746;50.892;4.064;2022-12-17T07:04:44;-6.70;99.90
13354;DHT22;6746;50.892;4.064;2022-12-17T07:07:56;-6.70;99.90
13354;DHT22;6746;50.892;4.064;2022-12-17T07:11:02;-6.70;99.90
13354;DHT22;6746;50.892;4.064;2022-12-17T07:14:08;-6.70;99.90
13354;DHT22;6746;50.892;4.064;2022-12-17T07:17:14;-6.80;99.90
13354;DHT22;6746;50.892;4.064;2022-12-17T07:20:13;-6.80;99.90
13354;DHT22;6746;50.892;4.064;2022-12-17T07:23:09;-6.90;99.90
13354;DHT22;6746;50.892;4.064;2022-12-17T07:26:15;-6.90;99.90
13354;DHT22;6746;50.892;4.064;2022-12-17T07:29:12;-6.90;99.90
13354;DHT22;6746;50.892;4.064;2022-12-17T07:31:59;-6.90;99.90
13354;DHT22;6746;50.892;4.064;2022-12-17T07:34:50;-6.90;99.90
13354;DHT22;6746;50.892;4.064;2022-12-17T07:37:31;-6.90;99.90
13354;DHT22;6746;50.892;4.064;2022-12-17T07:40:23;-6.80;99.90
13354;DHT22;6746;50.892;4.064;2022-12-17T07:43:12;-6.80;99.90
13354;DHT22;6746;50.892;4.064;2022-12-17T07:46:08;-6.70;99.90
13354;DHT22;6746;50.892;4.064;2022-12-17T07:49:04;-6.70;99.90
13354;DHT22;6746;50.892;4.064;2022-12-17T07:52:00;-6.60;99.90
13354;DHT22;6746;50.892;4.064;2022-12-17T07:54:57;-6.60;99.90
13354;DHT22;6746;50.892;4.064;2022-12-17T07:57:38;-6.50;99.90
13354;DHT22;6746;50.892;4.064;2022-12-17T08:00:25;-6.40;99.90
13354;DHT22;6746;50.892;4.064;2022-12-17T08:03:11;-6.40;99.90
13354;DHT22;6746;50.892;4.064;2022-12-17T08:06:03;-6.30;99.90
13354;DHT22;6746;50.892;4.064;2022-12-17T08:08:50;-6.20;99.90
13354;DHT22;6746;50.892;4.064;2022-12-17T08:11:36;-6.20;99.90
13354;DHT22;6746;50.892;4.064;2022-12-17T08:14:23;-6.20;99.90
13354;DHT22;6746;50.892;4.064;2022-12-17T08:17:21;-6.10;99.90
13354;DHT22;6746;50.892;4.064;2022-12-17T08:20:12;-6.10;99.90
13354;DHT22;6746;50.892;4.064;2022-12-17T08:23:11;-6.00;99.90
13354;DHT22;6746;50.892;4.064;2022-12-17T08:26:07;-6.00;99.90
13354;DHT22;6746;50.892;4.064;2022-12-17T08:28:56;-6.00;99.90
13354;DHT22;6746;50.892;4.064;2022-12-17T08:31:44;-5.90;99.90
13354;DHT22;6746;50.892;4.064;2022-12-17T08:34:31;-5.90;99.90
13354;DHT22;6746;50.892;4.064;2022-12-17T08:37:18;-5.80;99.90
13354;DHT22;6746;50.892;4.064;2022-12-17T08:40:14;-5.80;99.90
13354;DHT22;6746;50.892;4.064;2022-12-17T08:43:05;-5.70;99.90
13354;DHT22;6746;50.892;4.064;2022-12-17T08:45:52;-5.60;99.90
13354;DHT22;6746;50.892;4.064;2022-12-17T08:48:41;-5.50;99.90
13354;DHT22;6746;50.892;4.064;2022-12-17T08:51:28;-5.50;99.90
13354;DHT22;6746;50.892;4.064;2022-12-17T08:54:15;-5.50;99.90
13354;DHT22;6746;50.892;4.064;2022-12-17T08:57:04;-5.40;99.90
13354;DHT22;6746;50.892;4.064;2022-12-17T08:59:58;-5.30;99.90
13354;DHT22;6746;50.892;4.064;2022-12-17T09:02:47;-5.10;99.90
13354;DHT22;6746;50.892;4.064;2022-12-17T09:05:43;-5.00;99.90
13354;DHT22;6746;50.892;4.064;2022-12-17T09:08:40;-4.90;99.90
13354;DHT22;6746;50.892;4.064;2022-12-17T09:11:27;-4.80;99.90
13354;DHT22;6746;50.892;4.064;2022-12-17T09:14:14;-4.70;99.90
13354;DHT22;6746;50.892;4.064;2022-12-17T09:17:08;-4.60;99.90
13354;DHT22;6746;50.892;4.064;2022-12-17T09:19:55;-4.50;99.90
13354;DHT22;6746;50.892;4.064;2022-12-17T09:22:52;-4.40;99.90
13354;DHT22;6746;50.892;4.064;2022-12-17T09:25:42;-4.30;99.90
13354;DHT22;6746;50.892;4.064;2022-12-17T09:28:38;-4.20;99.90
13354;DHT22;6746;50.892;4.064;2022-12-17T09:31:34;-4.10;99.90
13354;DHT22;6746;50.892;4.064;2022-12-17T09:34:30;-3.90;99.90
13354;DHT22;6746;50.892;4.064;2022-12-17T09:37:24;-3.90;99.90
13354;DHT22;6746;50.892;4.064;2022-12-17T09:40:22;-3.80;99.90
13354;DHT22;6746;50.892;4.064;2022-12-17T09:43:24;-3.70;99.90
13354;DHT22;6746;50.892;4.064;2022-12-17T09:46:26;-3.60;99.90
13354;DHT22;6746;50.892;4.064;2022-12-17T09:49:24;-3.50;99.90
13354;DHT22;6746;50.892;4.064;2022-12-17T09:52:32;-3.40;99.90
13354;DHT22;6746;50.892;4.064;2022-12-17T09:55:43;-3.30;99.90
13354;DHT22;6746;50.892;4.064;2022-12-17T09:58:40;-3.20;99.90
13354;DHT22;6746;50.892;4.064;2022-12-17T10:01:37;-3.10;99.90
13354;DHT22;6746;50.892;4.064;2022-12-17T10:04:37;-3.00;99.90
13354;DHT22;6746;50.892;4.064;2022-12-17T10:07:33;-2.90;99.90
13354;DHT22;6746;50.892;4.064;2022-12-17T10:10:30;-2.80;99.90
13354;DHT22;6746;50.892;4.064;2022-12-17T10:13:25;-2.70;99.90
13354;DHT22;6746;50.892;4.064;2022-12-17T10:16:26;-2.60;99.90
13354;DHT22;6746;50.892;4.064;2022-12-17T10:19:13;-2.50;99.90
13354;DHT22;6746;50.892;4.064;2022-12-17T10:22:10;-2.50;99.90
13354;DHT22;6746;50.892;4.064;2022-12-17T10:24:54;-2.40;99.90
13354;DHT22;6746;50.892;4.064;2022-12-17T10:27:50;-2.30;99.90
13354;DHT22;6746;50.892;4.064;2022-12-17T10:30:46;-2.30;99.90
13354;DHT22;6746;50.892;4.064;2022-12-17T10:33:44;-2.20;99.90
13354;DHT22;6746;50.892;4.064;2022-12-17T10:36:51;-2.20;99.90
13354;DHT22;6746;50.892;4.064;2022-12-17T10:39:58;-2.20;99.90
13354;DHT22;6746;50.892;4.064;2022-12-17T10:42:51;-2.10;99.90
13354;DHT22;6746;50.892;4.064;2022-12-17T10:45:38;-2.00;99.90
13354;DHT22;6746;50.892;4.064;2022-12-17T10:48:35;-2.00;99.90
13354;DHT22;6746;50.892;4.064;2022-12-17T10:51:32;-2.00;99.90
13354;DHT22;6746;50.892;4.064;2022-12-17T10:54:28;-2.00;99.90
13354;DHT22;6746;50.892;4.064;2022-12-17T10:57:23;-1.90;99.90
13354;DHT22;6746;50.892;4.064;2022-12-17T11:00:29;-1.90;99.90
13354;DHT22;6746;50.892;4.064;2022-12-17T11:06:25;-1.70;99.90
13354;DHT22;6746;50.892;4.064;2022-12-17T11:09:18;-1.60;99.90
13354;DHT22;6746;50.892;4.064;2022-12-17T11:11:53;-1.50;99.90
13354;DHT22;6746;50.892;4.064;2022-12-17T11:14:43;-1.50;99.90
13354;DHT22;6746;50.892;4.064;2022-12-17T11:17:26;-1.40;99.90
13354;DHT22;6746;50.892;4.064;2022-12-17T11:20:24;-1.30;99.90
13354;DHT22;6746;50.892;4.064;2022-12-17T11:23:15;-1.30;99.90
13354;DHT22;6746;50.892;4.064;2022-12-17T11:26:06;-1.20;99.90
13354;DHT22;6746;50.892;4.064;2022-12-17T11:28:51;-1.20;99.90
13354;DHT22;6746;50.892;4.064;2022-12-17T11:32:43;-1.20;99.90
13354;DHT22;6746;50.892;4.064;2022-12-17T11:41:13;-1.00;99.90
13354;DHT22;6746;50.892;4.064;2022-12-17T11:47:29;-0.80;99.90
13354;DHT22;6746;50.892;4.064;2022-12-17T11:50:25;-0.80;99.90
13354;DHT22;6746;50.892;4.064;2022-12-17T11:53:36;-0.70;99.90
13354;DHT22;6746;50.892;4.064;2022-12-17T11:56:49;-0.60;99.90
13354;DHT22;6746;50.892;4.064;2022-12-17T11:59:48;-0.60;99.90
13354;DHT22;6746;50.892;4.064;2022-12-17T12:02:49;-0.50;99.90
13354;DHT22;6746;50.892;4.064;2022-12-17T12:05:52;-0.40;99.90
13354;DHT22;6746;50.892;4.064;2022-12-17T12:14:56;-0.20;99.90
13354;DHT22;6746;50.892;4.064;2022-12-17T12:17:53;-0.20;99.90
13354;DHT22;6746;50.892;4.064;2022-12-17T12:27:22;0.00;99.90
13354;DHT22;6746;50.892;4.064;2022-12-17T12:30:34;0.00;99.90
13354;DHT22;6746;50.892;4.064;2022-12-17T12:36:30;0.00;99.90
13354;DHT22;6746;50.892;4.064;2022-12-17T12:39:38;0.00;99.90
13354;DHT22;6746;50.892;4.064;2022-12-17T12:42:36;0.10;99.90
13354;DHT22;6746;50.892;4.064;2022-12-17T12:45:44;0.10;99.90
13354;DHT22;6746;50.892;4.064;2022-12-17T12:51:53;0.20;99.90
13354;DHT22;6746;50.892;4.064;2022-12-17T13:06:38;0.20;99.90
13354;DHT22;6746;50.892;4.064;2022-12-17T13:09:18;0.20;99.90
13354;DHT22;6746;50.892;4.064;2022-12-17T13:19:44;0.20;99.90
13354;DHT22;6746;50.892;4.064;2022-12-17T13:22:28;0.20;99.90
13354;DHT22;6746;50.892;4.064;2022-12-17T13:25:08;0.20;99.90
13354;DHT22;6746;50.892;4.064;2022-12-17T13:27:38;0.20;99.90
13354;DHT22;6746;50.892;4.064;2022-12-17T13:30:19;0.20;99.90
13354;DHT22;6746;50.892;4.064;2022-12-17T13:38:32;0.30;99.90
13354;DHT22;6746;50.892;4.064;2022-12-17T13:41:25;0.30;99.90
13354;DHT22;6746;50.892;4.064;2022-12-17T13:43:53;0.30;99.90
13354;DHT22;6746;50.892;4.064;2022-12-17T13:46:27;0.30;99.90
13354;DHT22;6746;50.892;4.064;2022-12-17T13:49:24;0.20;99.90
13354;DHT22;6746;50.892;4.064;2022-12-17T13:52:15;0.30;99.90
13354;DHT22;6746;50.892;4.064;2022-12-17T13:54:43;0.30;99.90
13354;DHT22;6746;50.892;4.064;2022-12-17T13:57:13;0.20;99.90
13354;DHT22;6746;50.892;4.064;2022-12-17T13:59:55;0.20;99.90
13354;DHT22;6746;50.892;4.064;2022-12-17T14:02:30;0.20;99.90
13354;DHT22;6746;50.892;4.064;2022-12-17T14:04:59;0.20;99.90
13354;DHT22;6746;50.892;4.064;2022-12-17T14:07:39;0.20;99.90
13354;DHT22;6746;50.892;4.064;2022-12-17T14:10:16;0.20;99.90
13354;DHT22;6746;50.892;4.064;2022-12-17T14:12:44;0.20;99.90
13354;DHT22;6746;50.892;4.064;2022-12-17T14:15:24;0.20;99.90
13354;DHT22;6746;50.892;4.064;2022-12-17T14:17:53;0.10;99.90
13354;DHT22;6746;50.892;4.064;2022-12-17T14:20:31;0.10;99.90
13354;DHT22;6746;50.892;4.064;2022-12-17T14:23:28;0.00;99.90
13354;DHT22;6746;50.892;4.064;2022-12-17T14:25:56;0.00;99.90
13354;DHT22;6746;50.892;4.064;2022-12-17T14:28:32;-0.10;99.90
13354;DHT22;6746;50.892;4.064;2022-12-17T14:31:07;-0.10;99.90
13354;DHT22;6746;50.892;4.064;2022-12-17T14:33:37;-0.20;99.90
13354;DHT22;6746;50.892;4.064;2022-12-17T14:38:53;-0.30;99.90
13354;DHT22;6746;50.892;4.064;2022-12-17T14:41:26;-0.40;99.90
13354;DHT22;6746;50.892;4.064;2022-12-17T14:44:17;-0.40;99.90
13354;DHT22;6746;50.892;4.064;2022-12-17T14:46:50;-0.50;99.90
13354;DHT22;6746;50.892;4.064;2022-12-17T14:49:19;-0.50;99.90
13354;DHT22;6746;50.892;4.064;2022-12-17T14:51:47;-0.60;99.90
13354;DHT22;6746;50.892;4.064;2022-12-17T14:57:03;-0.70;99.90
13354;DHT22;6746;50.892;4.064;2022-12-17T14:59:48;-0.70;99.90
13354;DHT22;6746;50.892;4.064;2022-12-17T15:02:27;-0.80;99.90
13354;DHT22;6746;50.892;4.064;2022-12-17T15:05:00;-0.80;99.90
13354;DHT22;6746;50.892;4.064;2022-12-17T15:07:29;-0.80;99.90
13354;DHT22;6746;50.892;4.064;2022-12-17T15:10:13;-0.90;99.90
13354;DHT22;6746;50.892;4.064;2022-12-17T15:12:42;-1.00;99.90
13354;DHT22;6746;50.892;4.064;2022-12-17T15:15:20;-1.10;99.90
13354;DHT22;6746;50.892;4.064;2022-12-17T15:17:49;-1.20;99.90
13354;DHT22;6746;50.892;4.064;2022-12-17T15:20:19;-1.20;99.90
13354;DHT22;6746;50.892;4.064;2022-12-17T15:22:47;-1.20;99.90
13354;DHT22;6746;50.892;4.064;2022-12-17T15:25:17;-1.30;99.90
13354;DHT22;6746;50.892;4.064;2022-12-17T15:27:45;-1.30;99.90
13354;DHT22;6746;50.892;4.064;2022-12-17T15:30:15;-1.40;99.90
13354;DHT22;6746;50.892;4.064;2022-12-17T15:32:51;-1.40;99.90
13354;DHT22;6746;50.892;4.064;2022-12-17T15:35:20;-1.50;99.90
13354;DHT22;6746;50.892;4.064;2022-12-17T15:37:51;-1.50;99.90
13354;DHT22;6746;50.892;4.064;2022-12-17T15:40:22;-1.60;99.90
13354;DHT22;6746;50.892;4.064;2022-12-17T15:42:54;-1.60;99.90
13354;DHT22;6746;50.892;4.064;2022-12-17T15:45:42;-1.70;99.90
13354;DHT22;6746;50.892;4.064;2022-12-17T15:48:11;-1.80;99.90
13354;DHT22;6746;50.892;4.064;2022-12-17T15:50:39;-1.80;99.90
13354;DHT22;6746;50.892;4.064;2022-12-17T15:53:17;-1.90;99.90
13354;DHT22;6746;50.892;4.064;2022-12-17T15:55:57;-1.90;99.90
13354;DHT22;6746;50.892;4.064;2022-12-17T15:58:20;-1.90;99.90
13354;DHT22;6746;50.892;4.064;2022-12-17T16:00:59;-2.00;99.90
13354;DHT22;6746;50.892;4.064;2022-12-17T16:03:33;-2.10;99.90
13354;DHT22;6746;50.892;4.064;2022-12-17T16:06:11;-2.10;99.90
13354;DHT22;6746;50.892;4.064;2022-12-17T16:08:59;-2.20;99.90
13354;DHT22;6746;50.892;4.064;2022-12-17T16:11:38;-2.20;99.90
13354;DHT22;6746;50.892;4.064;2022-12-17T16:14:18;-2.20;99.90
13354;DHT22;6746;50.892;4.064;2022-12-17T16:17:06;-2.20;99.90
13354;DHT22;6746;50.892;4.064;2022-12-17T16:19:55;-2.20;99.90
13354;DHT22;6746;50.892;4.064;2022-12-17T16:22:36;-2.30;99.90
13354;DHT22;6746;50.892;4.064;2022-12-17T16:25:15;-2.30;99.90
13354;DHT22;6746;50.892;4.064;2022-12-17T16:27:53;-2.30;99.90
13354;DHT22;6746;50.892;4.064;2022-12-17T16:30:33;-2.30;99.90
13354;DHT22;6746;50.892;4.064;2022-12-17T16:33:14;-2.30;99.90
13354;DHT22;6746;50.892;4.064;2022-12-17T16:35:52;-2.30;99.90
13354;DHT22;6746;50.892;4.064;2022-12-17T16:38:44;-2.30;99.90
13354;DHT22;6746;50.892;4.064;2022-12-17T16:41:25;-2.30;99.90
13354;DHT22;6746;50.892;4.064;2022-12-17T16:44:03;-2.30;99.90
13354;DHT22;6746;50.892;4.064;2022-12-17T16:46:44;-2.30;99.90
13354;DHT22;6746;50.892;4.064;2022-12-17T16:49:24;-2.30;99.90
13354;DHT22;6746;50.892;4.064;2022-12-17T16:52:08;-2.30;99.90
13354;DHT22;6746;50.892;4.064;2022-12-17T16:54:46;-2.30;99.90
13354;DHT22;6746;50.892;4.064;2022-12-17T16:57:29;-2.30;99.90
13354;DHT22;6746;50.892;4.064;2022-12-17T17:00:07;-2.30;99.90
13354;DHT22;6746;50.892;4.064;2022-12-17T17:02:53;-2.30;99.90
13354;DHT22;6746;50.892;4.064;2022-12-17T17:05:31;-2.30;99.90
13354;DHT22;6746;50.892;4.064;2022-12-17T17:08:18;-2.30;99.90
13354;DHT22;6746;50.892;4.064;2022-12-17T17:11:08;-2.30;99.90
13354;DHT22;6746;50.892;4.064;2022-12-17T17:13:58;-2.30;99.90
13354;DHT22;6746;50.892;4.064;2022-12-17T17:16:46;-2.30;99.90
13354;DHT22;6746;50.892;4.064;2022-12-17T17:19:34;-2.30;99.90
13354;DHT22;6746;50.892;4.064;2022-12-17T17:22:22;-2.30;99.90
13354;DHT22;6746;50.892;4.064;2022-12-17T17:25:09;-2.30;99.90
13354;DHT22;6746;50.892;4.064;2022-12-17T17:27:50;-2.30;99.90
13354;DHT22;6746;50.892;4.064;2022-12-17T17:30:31;-2.20;99.90
13354;DHT22;6746;50.892;4.064;2022-12-17T17:33:09;-2.20;99.90
13354;DHT22;6746;50.892;4.064;2022-12-17T17:36:01;-2.20;99.90
13354;DHT22;6746;50.892;4.064;2022-12-17T17:38:33;-2.20;99.90
13354;DHT22;6746;50.892;4.064;2022-12-17T17:41:21;-2.20;99.90
13354;DHT22;6746;50.892;4.064;2022-12-17T17:44:11;-2.20;99.90
13354;DHT22;6746;50.892;4.064;2022-12-17T17:46:59;-2.10;99.90
13354;DHT22;6746;50.892;4.064;2022-12-17T17:49:46;-2.20;99.90
13354;DHT22;6746;50.892;4.064;2022-12-17T17:52:25;-2.20;99.90
13354;DHT22;6746;50.892;4.064;2022-12-17T17:55:08;-2.20;99.90
13354;DHT22;6746;50.892;4.064;2022-12-17T17:57:48;-2.30;99.90
13354;DHT22;6746;50.892;4.064;2022-12-17T18:00:29;-2.30;99.90
13354;DHT22;6746;50.892;4.064;2022-12-17T18:03:07;-2.40;99.90
13354;DHT22;6746;50.892;4.064;2022-12-17T18:05:51;-2.40;99.90
13354;DHT22;6746;50.892;4.064;2022-12-17T18:08:29;-2.40;99.90
13354;DHT22;6746;50.892;4.064;2022-12-17T18:11:09;-2.50;99.90
13354;DHT22;6746;50.892;4.064;2022-12-17T18:13:50;-2.50;99.90
13354;DHT22;6746;50.892;4.064;2022-12-17T18:16:35;-2.50;99.90
13354;DHT22;6746;50.892;4.064;2022-12-17T18:21:54;-2.50;99.90
13354;DHT22;6746;50.892;4.064;2022-12-17T18:24:32;-2.50;99.90
13354;DHT22;6746;50.892;4.064;2022-12-17T18:27:16;-3.40;99.90
13354;DHT22;6746;50.892;4.064;2022-12-17T18:29:56;-2.50;99.90
13354;DHT22;6746;50.892;4.064;2022-12-17T18:32:42;-2.50;99.90
13354;DHT22;6746;50.892;4.064;2022-12-17T18:35:21;-2.60;99.90
13354;DHT22;6746;50.892;4.064;2022-12-17T18:38:09;-2.60;99.90
13354;DHT22;6746;50.892;4.064;2022-12-17T18:40:47;-2.60;99.90
13354;DHT22;6746;50.892;4.064;2022-12-17T18:43:26;-2.50;99.90
13354;DHT22;6746;50.892;4.064;2022-12-17T18:46:04;-2.50;99.90
13354;DHT22;6746;50.892;4.064;2022-12-17T18:48:42;-2.50;99.90
13354;DHT22;6746;50.892;4.064;2022-12-17T18:51:20;-2.50;99.90
13354;DHT22;6746;50.892;4.064;2022-12-17T18:53:59;-2.60;99.90
13354;DHT22;6746;50.892;4.064;2022-12-17T18:56:45;-2.60;99.90
13354;DHT22;6746;50.892;4.064;2022-12-17T18:59:25;-2.60;99.90
13354;DHT22;6746;50.892;4.064;2022-12-17T19:02:12;-2.60;99.90
13354;DHT22;6746;50.892;4.064;2022-12-17T19:04:50;-2.70;99.90
13354;DHT22;6746;50.892;4.064;2022-12-17T19:07:31;-2.70;99.90
13354;DHT22;6746;50.892;4.064;2022-12-17T19:10:09;-2.70;99.90
13354;DHT22;6746;50.892;4.064;2022-12-17T19:12:57;-2.70;99.90
13354;DHT22;6746;50.892;4.064;2022-12-17T19:15:45;-2.70;99.90
13354;DHT22;6746;50.892;4.064;2022-12-17T19:18:33;-2.80;99.90
13354;DHT22;6746;50.892;4.064;2022-12-17T19:21:22;-2.70;99.90
13354;DHT22;6746;50.892;4.064;2022-12-17T19:24:16;-2.80;99.90
13354;DHT22;6746;50.892;4.064;2022-12-17T19:27:03;-2.80;99.90
13354;DHT22;6746;50.892;4.064;2022-12-17T19:29:52;-2.80;99.90
13354;DHT22;6746;50.892;4.064;2022-12-17T19:32:33;-2.80;99.90
13354;DHT22;6746;50.892;4.064;2022-12-17T19:35:11;-2.80;99.90